createdAt,value
2019-05-03T00:02:29.395Z,38.30
2019-05-03T00:06:35.296Z,26.87
2019-05-03T00:10:42.523Z,32.50
2019-05-03T00:14:59.036Z,33.97
2019-05-03T00:19:06.120Z,32.93
2019-05-03T00:23:12.131Z,30.57
2019-05-03T00:27:21.610Z,42.80
2019-05-03T00:31:27.504Z,34.60
2019-05-03T00:35:57.650Z,38.37
2019-05-03T00:44:13.676Z,30.13
2019-05-03T00:48:21.797Z,38.80
2019-05-03T00:52:31.824Z,32.43
2019-05-03T00:56:37.634Z,36.37
2019-05-03T01:00:45.758Z,28.73
2019-05-03T01:05:12.761Z,31.63
2019-05-03T01:09:23.849Z,33.50
2019-05-03T01:13:33.335Z,36.47
2019-05-03T01:17:39.473Z,32.10
2019-05-03T01:21:46.103Z,34.10
2019-05-03T01:25:55.158Z,35.03
2019-05-03T01:30:02.810Z,34.97
2019-05-03T01:34:12.528Z,31.67
2019-05-03T01:38:22.503Z,32.53
2019-05-03T01:42:29.384Z,36.13
2019-05-03T01:46:35.986Z,35.30
2019-05-03T01:50:49.477Z,31.70
2019-05-03T01:54:55.496Z,36.47
2019-05-03T01:59:05.861Z,34.07
2019-05-03T02:03:35.607Z,33.83
2019-05-03T02:07:42.318Z,34.73
2019-05-03T02:11:48.322Z,34.10
2019-05-03T02:15:56.134Z,33.63
2019-05-03T02:20:04.727Z,40.63
2019-05-03T02:24:14.675Z,29.00
2019-05-03T02:28:23.253Z,33.43
2019-05-03T02:32:33.412Z,32.87
2019-05-03T02:36:39.134Z,36.00
2019-05-03T02:40:45.217Z,37.57
2019-05-03T02:44:52.453Z,39.07
2019-05-03T02:49:20.514Z,40.20
2019-05-03T02:53:27.076Z,38.67
2019-05-03T02:57:35.306Z,41.73
2019-05-03T03:01:42.647Z,39.40
2019-05-03T03:05:57.943Z,42.37
2019-05-03T03:10:05.306Z,37.47
2019-05-03T03:14:16.795Z,46.43
2019-05-03T03:18:25.482Z,43.70
2019-05-03T03:22:51.927Z,32.13
2019-05-03T03:26:59.763Z,39.83
2019-05-03T03:31:28.202Z,42.63
2019-05-03T03:35:37.602Z,36.37
2019-05-03T03:39:45.858Z,37.50
2019-05-03T03:43:55.874Z,45.87
2019-05-03T03:48:05.167Z,40.70
2019-05-03T03:52:10.476Z,43.53
2019-05-03T03:56:21.739Z,44.43
2019-05-03T04:00:28.204Z,45.13
2019-05-03T04:04:35.861Z,43.47
2019-05-03T04:08:45.155Z,47.57
2019-05-03T04:12:50.607Z,44.30
2019-05-03T04:17:05.905Z,49.93
2019-05-03T04:21:11.624Z,47.73
2019-05-03T04:25:17.491Z,40.27
2019-05-03T04:29:26.865Z,39.47
2019-05-03T04:33:35.901Z,42.13
2019-05-03T04:37:39.560Z,45.60
2019-05-03T04:41:45.684Z,40.93
2019-05-03T04:46:16.219Z,43.07
2019-05-03T04:50:20.059Z,34.83
2019-05-03T04:54:45.241Z,43.23
2019-05-03T04:58:50.724Z,37.13
2019-05-03T05:03:18.594Z,33.80
2019-05-03T05:07:27.758Z,39.53
2019-05-03T05:11:40.024Z,34.53
2019-05-03T05:15:46.198Z,39.50
2019-05-03T05:20:14.448Z,31.57
2019-05-03T05:24:20.725Z,29.33
2019-05-03T05:28:36.215Z,30.97
2019-05-03T05:32:42.587Z,32.47
2019-05-03T05:36:50.881Z,33.33
2019-05-03T05:41:16.582Z,28.33
2019-05-03T05:45:24.428Z,27.40
2019-05-03T05:53:52.649Z,27.97
2019-05-03T06:02:40.000Z,22.77
2019-05-03T06:06:59.796Z,20.53
2019-05-03T06:11:20.938Z,13.37
2019-05-03T06:15:46.874Z,10.95
2019-05-03T06:20:01.856Z,11.70
2019-05-03T06:24:30.485Z,9.57
2019-05-03T06:28:38.436Z,7.20
2019-05-03T06:32:45.763Z,9.47
2019-05-03T06:36:55.772Z,11.10
2019-05-03T06:41:02.129Z,12.93
2019-05-03T06:45:15.625Z,6.77
2019-05-03T06:54:08.391Z,7.57
2019-05-03T07:03:49.871Z,10.73
2019-05-03T07:08:05.202Z,9.97
2019-05-03T07:12:14.957Z,11.00
2019-05-03T07:16:25.387Z,8.07
2019-05-03T07:20:41.501Z,8.00
2019-05-03T07:24:47.860Z,10.07
2019-05-03T07:28:54.651Z,11.03
2019-05-03T07:33:05.607Z,8.83
2019-05-03T07:37:34.854Z,10.90
2019-05-03T07:41:40.391Z,10.70
2019-05-03T07:45:45.911Z,15.53
2019-05-03T07:50:15.171Z,12.17
2019-05-03T07:54:24.997Z,10.97
2019-05-03T07:58:35.177Z,8.50
2019-05-03T08:02:44.632Z,10.30
2019-05-03T08:07:20.634Z,7.97
2019-05-03T08:11:20.612Z,6.50
2019-05-03T08:19:55.272Z,12.73
2019-05-03T08:28:21.007Z,8.60
2019-05-03T08:36:55.012Z,17.90
2019-05-03T08:41:05.363Z,8.80
2019-05-03T08:45:14.825Z,7.77
2019-05-03T08:49:22.491Z,10.70
2019-05-03T08:53:29.856Z,7.50
2019-05-03T09:01:55.013Z,11.07
2019-05-03T09:06:00.581Z,13.73
2019-05-03T09:10:26.344Z,9.03
2019-05-03T09:14:41.389Z,11.33
2019-05-03T09:18:41.685Z,14.03
2019-05-03T09:27:25.315Z,13.50
2019-05-03T09:31:39.609Z,9.83
2019-05-03T09:35:55.388Z,7.53
2019-05-03T09:40:01.023Z,10.70
2019-05-03T09:44:34.836Z,11.30
2019-05-03T09:48:42.429Z,8.07
2019-05-03T09:52:55.461Z,18.60
2019-05-03T09:57:01.565Z,10.23
2019-05-03T10:01:12.349Z,13.47
2019-05-03T10:05:18.042Z,14.37
2019-05-03T10:09:26.412Z,6.60
2019-05-03T10:13:36.829Z,16.13
2019-05-03T10:18:01.288Z,9.20
2019-05-03T10:22:08.099Z,9.67
2019-05-03T10:26:16.402Z,15.77
2019-05-03T10:30:28.498Z,9.60
2019-05-03T10:38:47.694Z,8.00
2019-05-03T10:42:59.369Z,10.33
2019-05-03T10:47:09.393Z,12.80
2019-05-03T10:51:30.134Z,12.93
2019-05-03T10:55:37.122Z,13.50
2019-05-03T10:59:48.284Z,10.57
2019-05-03T11:04:00.708Z,6.90
2019-05-03T11:08:09.854Z,7.87
2019-05-03T11:12:18.032Z,6.80
2019-05-03T11:16:31.548Z,8.93
2019-05-03T11:20:37.815Z,6.13
2019-05-03T11:25:06.410Z,4.50
2019-05-03T11:29:12.804Z,13.00
2019-05-03T11:33:24.799Z,5.83
2019-05-03T11:37:49.493Z,7.10
2019-05-03T11:41:59.894Z,4.63
2019-05-03T11:46:09.765Z,8.37
2019-05-03T11:50:19.565Z,7.83
2019-05-03T11:54:25.905Z,11.73
2019-05-03T11:58:34.662Z,11.13
2019-05-03T12:03:00.118Z,11.40
2019-05-03T12:07:07.263Z,3.97
2019-05-03T12:15:51.307Z,9.37
2019-05-03T12:19:59.892Z,9.90
2019-05-03T12:24:09.475Z,9.40
2019-05-03T12:42:02.501Z,4.23
2019-05-03T12:46:08.735Z,9.00
2019-05-03T12:50:15.679Z,11.93
2019-05-03T12:54:21.794Z,6.97
2019-05-03T12:58:47.311Z,8.53
2019-05-03T13:02:57.424Z,3.97
2019-05-03T13:11:52.031Z,9.53
2019-05-03T13:15:49.699Z,5.60
2019-05-03T13:19:57.388Z,5.40
2019-05-03T13:24:02.919Z,5.90
2019-05-03T13:28:09.905Z,9.23
2019-05-03T13:32:18.591Z,5.63
2019-05-03T13:36:26.617Z,9.93
2019-05-03T13:40:36.069Z,7.50
2019-05-03T13:45:06.721Z,5.67
2019-05-03T13:49:16.096Z,6.60
2019-05-03T13:53:22.148Z,6.73
2019-05-03T13:57:28.291Z,9.43
2019-05-03T14:01:36.330Z,9.57
2019-05-03T14:06:07.640Z,7.57
2019-05-03T14:10:11.468Z,8.40
2019-05-03T15:10:38.683Z,10.87
2019-05-03T15:14:45.127Z,9.03
2019-05-03T15:24:21.535Z,5.93
2019-05-03T15:43:14.892Z,8.43
2019-05-03T15:47:30.547Z,7.03
2019-05-03T15:51:56.183Z,4.33
2019-05-03T15:56:01.986Z,10.00
2019-05-03T16:05:06.362Z,9.57
2019-05-03T16:18:05.597Z,6.57
2019-05-03T16:22:11.511Z,8.00
2019-05-03T16:26:21.386Z,6.70
2019-05-03T16:30:46.036Z,9.13
2019-05-03T16:34:52.237Z,7.67
2019-05-03T16:39:02.580Z,8.50
2019-05-03T16:43:11.916Z,11.90
2019-05-03T16:47:19.937Z,9.77
2019-05-03T16:51:25.733Z,7.57
2019-05-03T16:55:32.026Z,13.27
2019-05-03T16:59:44.361Z,9.50
2019-05-03T17:03:56.540Z,7.87
2019-05-03T17:08:22.199Z,11.80
2019-05-03T17:12:29.221Z,9.13
2019-05-03T17:16:37.771Z,9.67
2019-05-03T17:20:45.348Z,9.43
2019-05-03T17:25:07.429Z,4.07
2019-05-03T17:29:11.703Z,6.37
2019-05-03T17:37:35.709Z,5.00
2019-05-03T17:41:56.693Z,7.10
2019-05-03T17:46:04.290Z,7.87
2019-05-03T17:54:39.934Z,11.30
2019-05-03T17:59:04.646Z,8.80
2019-05-03T18:03:10.931Z,5.53
2019-05-03T18:07:26.915Z,8.77
2019-05-03T18:11:35.939Z,15.80
2019-05-03T18:15:41.742Z,11.97
2019-05-03T18:19:49.401Z,13.20
2019-05-03T18:23:59.728Z,11.50
2019-05-03T18:28:08.078Z,10.80
2019-05-03T18:32:16.574Z,10.87
2019-05-03T18:36:22.620Z,11.33
2019-05-03T18:40:31.417Z,15.23
2019-05-03T18:45:00.693Z,10.70
2019-05-03T18:49:06.174Z,14.13
2019-05-03T18:53:12.296Z,7.83
2019-05-03T18:57:21.642Z,9.13
2019-05-03T19:01:29.107Z,13.57
2019-05-03T19:05:35.740Z,12.77
2019-05-03T19:09:55.485Z,10.13
2019-05-03T19:14:04.786Z,11.33
2019-05-03T19:18:32.239Z,11.30
2019-05-03T19:22:41.651Z,8.17
2019-05-03T19:26:50.348Z,10.80
2019-05-03T19:30:57.648Z,8.77
2019-05-03T19:35:05.006Z,10.10
2019-05-03T19:39:11.673Z,14.97
2019-05-03T19:43:18.051Z,10.83
2019-05-03T19:47:25.139Z,15.73
2019-05-03T19:55:41.807Z,13.47
2019-05-03T20:00:06.611Z,15.57
2019-05-03T20:04:31.363Z,11.27
2019-05-03T20:09:02.212Z,20.23
2019-05-03T20:13:11.468Z,18.60
2019-05-03T20:17:16.976Z,16.07
2019-05-03T20:21:25.843Z,18.37
2019-05-03T20:25:40.320Z,18.37
2019-05-03T20:29:47.935Z,12.27
2019-05-03T20:33:55.307Z,18.97
2019-05-03T20:38:01.756Z,15.40
2019-05-03T20:42:07.524Z,16.87
2019-05-03T20:46:17.021Z,15.70
2019-05-03T20:50:24.821Z,20.63
2019-05-03T20:54:30.471Z,16.73
2019-05-03T20:58:37.962Z,16.50
2019-05-03T21:02:51.537Z,19.80
2019-05-03T21:06:55.195Z,29.90
2019-05-03T21:11:02.509Z,20.67
2019-05-03T21:15:15.921Z,18.97
2019-05-03T21:19:36.890Z,23.93
2019-05-03T21:23:46.449Z,20.13
2019-05-03T21:27:52.065Z,16.83
2019-05-03T21:32:00.517Z,21.57
2019-05-03T21:36:06.270Z,20.60
2019-05-03T21:40:15.633Z,34.10
2019-05-03T21:48:55.423Z,33.43
2019-05-03T21:53:06.007Z,42.77
2019-05-03T21:57:16.583Z,47.90
2019-05-03T22:01:22.351Z,41.33
2019-05-03T22:05:27.887Z,41.77
2019-05-03T22:09:36.499Z,48.23
2019-05-03T22:13:42.907Z,44.73
2019-05-03T22:17:54.821Z,39.93
2019-05-03T22:22:19.983Z,41.97
2019-05-03T22:26:45.772Z,40.37
2019-05-03T22:30:56.874Z,47.33
2019-05-03T22:35:04.927Z,40.53
2019-05-03T22:43:38.529Z,37.20
2019-05-03T22:47:44.634Z,35.73
2019-05-03T22:51:52.011Z,35.73
2019-05-03T22:55:58.385Z,38.57
2019-05-03T23:00:06.534Z,39.37
2019-05-03T23:04:15.615Z,44.47
2019-05-03T23:22:46.487Z,35.63
2019-05-03T23:26:52.139Z,36.43
2019-05-03T23:30:58.281Z,41.90
2019-05-03T23:35:04.955Z,36.97
2019-05-03T23:43:36.884Z,32.77
2019-05-03T23:47:45.898Z,33.83
2019-05-03T23:51:56.748Z,39.47
2019-05-03T23:56:10.024Z,31.17
